Airfield :







YOU CAN JOIN US ON...

 
LOGIN :

Register | Disclaimer

   EN    FR    IT 

 









Legend :    VFR   Marginal VFR   IFR   Intensive IFR   Very Intensive IFR
Visi :
Ceiling :
>= 8 km
>= 3000ft
5 to 8 km
1000 to 3000 ft
1500m to 5 km
500 to 1000 ft
800 to 1500m
200 to 500 ft
< 800m
< 200 ft
Symbols :   Thunderstorms  Fog  Heavy snow  Heavy precipitations  Wind > 20 kt






- Airport Elevation : 160 ft
- IATA code : YYR


CYYR - Goose Bay

CURRENT METAR :
  • 131500Z 26011KT 15SM FEW030 21/06 A2987 RMK CF2 DENSITY ALT 1115FT SLP117

EXPIRED METARs :
  • 131400Z 28007G15KT 250V320 15SM FEW025 20/07 A2988 RMK CF2 DENSITY ALT 1001FT SLP120
  • 131300Z 28008KT 240V310 15SM FEW020 FEW045 18/08 A2989 RMK CF1SC1 DENSITY ALT 775FT SLP121
  • 131200Z 31006KT 15SM FEW020 FEW045 FEW150 17/08 A2989 RMK CF1SC1AC1 DENSITY ALT 653FT SLP123
  • 131100Z 31005KT 15SM FEW020 BKN040 BKN260 16/08 A2989 RMK CF1SC6CI1 DENSITY ALT 469FT SLP124

TAF TAF CYYR
Valid from the 13 at 12:00 until the 14 at 18:00 UTC


131140Z 1312/1418 32005KT P6SM BKN060 OVC100
FM131300 28008KT P6SM SCT040
FM131800 31012KT P6SM FEW060 BKN140
BECMG 1400/1402 01005KT
BECMG 1406/1408 VRB03KT
FM141400 03005KT P6SM BKN130 RMK NXT FCST BY 131800Z
CZQX FIR / North America



MET'MAP, your aeronautical weather chart ! - Copyright ORBIFLY December 2007 - Disclaimer

ORBIFLY MET'MAP TEAM :

Programming & Development : Alexandra Zaïnal
Original concept : Baudouin d'Aumeries
Technical & hardware support : Manuel Goepfert
Assistance : Marc-Olivier Méhu




SOURCES & CREDITS :

   NOAA